createdAt,value
2023-03-21T00:01:35.407Z,7.98
2023-03-21T00:04:08.879Z,7.92
2023-03-21T00:06:40.024Z,7.75
2023-03-21T00:09:09.045Z,7.64
2023-03-21T00:11:38.276Z,7.61
2023-03-21T00:14:09.128Z,7.56
2023-03-21T00:16:41.617Z,7.52
2023-03-21T00:19:14.775Z,7.47
2023-03-21T00:22:05.465Z,7.37
2023-03-21T00:24:37.545Z,7.29
2023-03-21T00:27:39.413Z,7.29
2023-03-21T00:29:58.798Z,7.30
2023-03-21T00:32:31.135Z,7.29
2023-03-21T00:35:23.281Z,7.33
2023-03-21T00:37:50.598Z,7.40
2023-03-21T00:40:29.549Z,7.33
2023-03-21T00:43:04.657Z,7.27
2023-03-21T00:45:37.912Z,7.23
2023-03-21T00:48:09.598Z,7.16
2023-03-21T00:50:40.773Z,7.14
2023-03-21T00:53:10.505Z,7.14
2023-03-21T00:55:41.602Z,7.13
2023-03-21T00:58:11.568Z,7.10
2023-03-21T01:00:41.956Z,7.04
2023-03-21T01:03:24.320Z,6.98
2023-03-21T01:06:07.390Z,6.93
2023-03-21T01:08:53.022Z,6.91
2023-03-21T01:11:30.297Z,6.87
2023-03-21T01:14:18.653Z,6.84
2023-03-21T01:16:54.887Z,6.83
2023-03-21T01:19:44.752Z,6.82
2023-03-21T01:22:19.038Z,6.79
2023-03-21T01:25:02.924Z,6.77
2023-03-21T01:27:38.421Z,6.72
2023-03-21T01:30:19.052Z,6.72
2023-03-21T01:32:50.655Z,6.73
2023-03-21T01:35:21.635Z,6.72
2023-03-21T01:37:52.092Z,6.72
2023-03-21T01:40:26.364Z,6.72
2023-03-21T01:43:04.260Z,6.72
2023-03-21T01:46:12.591Z,6.72
2023-03-21T01:49:34.690Z,6.74
2023-03-21T01:52:39.426Z,6.69
2023-03-21T01:55:16.549Z,6.66
2023-03-21T01:58:12.776Z,6.67
2023-03-21T02:00:52.388Z,6.70
2023-03-21T02:03:38.888Z,6.71
2023-03-21T02:06:35.859Z,6.72
2023-03-21T02:09:15.306Z,6.72
2023-03-21T02:11:47.684Z,6.74
2023-03-21T02:14:28.916Z,6.76
2023-03-21T02:17:15.784Z,6.75
2023-03-21T02:20:25.658Z,6.70
2023-03-21T02:23:13.763Z,6.67
2023-03-21T02:26:40.875Z,6.69
2023-03-21T02:29:46.304Z,6.71
2023-03-21T02:32:37.381Z,6.69
2023-03-21T02:35:28.811Z,6.67
2023-03-21T02:38:18.496Z,6.69
2023-03-21T02:40:56.685Z,6.74
2023-03-21T02:43:47.839Z,6.74
2023-03-21T02:46:42.923Z,6.73
2023-03-21T02:49:22.830Z,6.71
2023-03-21T02:52:00.240Z,6.71
2023-03-21T02:54:47.486Z,6.70
2023-03-21T02:57:24.053Z,6.67
2023-03-21T03:00:02.458Z,6.64
2023-03-21T03:02:37.187Z,6.63
2023-03-21T03:05:21.503Z,6.63
2023-03-21T03:08:08.673Z,6.64
2023-03-21T03:10:58.020Z,6.62
2023-03-21T03:13:35.203Z,6.62
2023-03-21T03:16:22.314Z,6.63
2023-03-21T03:18:56.053Z,6.61
2023-03-21T03:21:39.883Z,6.57
2023-03-21T03:24:20.511Z,6.56
2023-03-21T03:27:00.896Z,6.56
2023-03-21T03:29:34.697Z,6.56
2023-03-21T03:32:40.607Z,6.54
2023-03-21T03:35:10.491Z,6.53
2023-03-21T03:37:44.898Z,6.50
2023-03-21T03:40:24.594Z,6.47
2023-03-21T03:43:09.332Z,6.43
2023-03-21T03:45:56.259Z,6.41
2023-03-21T03:48:31.038Z,6.42
2023-03-21T03:51:27.468Z,6.42
2023-03-21T03:54:25.254Z,6.46
2023-03-21T03:56:56.003Z,6.47
2023-03-21T03:59:27.832Z,6.47
2023-03-21T04:02:25.821Z,6.45
2023-03-21T04:04:58.362Z,6.43
2023-03-21T04:07:28.171Z,6.43
2023-03-21T04:10:00.158Z,6.45
2023-03-21T04:12:30.868Z,6.45
2023-03-21T04:15:14.630Z,6.47
2023-03-21T04:17:48.836Z,6.52
2023-03-21T04:20:30.310Z,6.49
2023-03-21T04:23:08.117Z,6.45
2023-03-21T04:25:47.653Z,6.43
2023-03-21T04:28:25.405Z,6.43
2023-03-21T04:31:13.563Z,6.42
2023-03-21T04:33:56.297Z,6.41
2023-03-21T04:36:29.183Z,6.41
2023-03-21T04:39:02.255Z,6.42
2023-03-21T04:41:33.939Z,6.43
2023-03-21T04:44:03.875Z,6.45
2023-03-21T04:46:33.622Z,6.44
2023-03-21T04:49:04.151Z,6.45
2023-03-21T04:51:35.372Z,6.44
2023-03-21T04:56:36.930Z,6.45
2023-03-21T04:59:12.425Z,6.49
2023-03-21T05:01:44.776Z,6.55
2023-03-21T05:04:16.985Z,6.61
2023-03-21T05:06:48.062Z,6.64
2023-03-21T05:09:19.035Z,6.64
2023-03-21T05:11:49.681Z,6.63
2023-03-21T05:14:24.120Z,6.62
2023-03-21T05:16:56.685Z,6.62
2023-03-21T05:19:35.906Z,6.64
2023-03-21T05:22:12.496Z,6.66
2023-03-21T05:24:43.678Z,6.67
2023-03-21T05:27:34.784Z,6.68
2023-03-21T05:30:17.825Z,6.70
2023-03-21T05:32:51.433Z,6.68
2023-03-21T05:35:22.183Z,6.69
2023-03-21T05:37:51.719Z,6.70
2023-03-21T05:40:24.189Z,6.71
2023-03-21T05:42:56.914Z,6.73
2023-03-21T05:45:27.649Z,6.77
2023-03-21T05:47:58.421Z,6.82
2023-03-21T05:50:29.958Z,6.83
2023-03-21T05:53:23.277Z,6.86
2023-03-21T05:55:54.746Z,6.88
2023-03-21T05:58:53.851Z,6.98
2023-03-21T06:01:25.282Z,7.10
2023-03-21T06:04:00.185Z,7.18
2023-03-21T06:06:32.114Z,7.27
2023-03-21T06:09:02.897Z,7.33
2023-03-21T06:11:40.323Z,7.33
2023-03-21T06:14:42.718Z,7.39
2023-03-21T06:17:25.544Z,7.54
2023-03-21T06:20:01.471Z,7.68
2023-03-21T06:22:36.849Z,7.85
2023-03-21T06:25:09.262Z,7.88
2023-03-21T06:27:39.348Z,7.96
2023-03-21T06:30:11.874Z,8.03
2023-03-21T06:32:48.332Z,8.16
2023-03-21T06:35:20.897Z,8.21
2023-03-21T06:37:49.799Z,8.22
2023-03-21T06:40:20.319Z,8.24
2023-03-21T06:42:50.182Z,8.38
2023-03-21T06:45:21.632Z,8.52
2023-03-21T06:47:53.428Z,8.57
2023-03-21T06:50:45.811Z,8.70
2023-03-21T06:53:19.870Z,8.92
2023-03-21T06:56:12.320Z,9.03
2023-03-21T06:58:45.723Z,9.10
2023-03-21T07:01:28.045Z,9.09
2023-03-21T07:04:05.276Z,9.19
2023-03-21T07:06:35.274Z,9.27
2023-03-21T07:09:06.363Z,9.23
2023-03-21T07:11:38.063Z,9.24
2023-03-21T07:14:39.477Z,9.30
2023-03-21T07:17:10.912Z,9.34
2023-03-21T07:19:40.594Z,9.45
2023-03-21T07:22:10.938Z,9.48
2023-03-21T07:24:41.118Z,9.49
2023-03-21T07:27:11.007Z,9.54
2023-03-21T07:29:42.036Z,9.51
2023-03-21T07:32:12.996Z,9.47
2023-03-21T07:34:44.776Z,9.49
2023-03-21T07:37:14.755Z,9.50
2023-03-21T07:39:49.268Z,9.58
2023-03-21T07:42:23.758Z,9.58
2023-03-21T07:45:00.390Z,9.56
2023-03-21T07:47:35.049Z,9.48
2023-03-21T07:50:06.684Z,9.36
2023-03-21T07:52:37.737Z,9.36
2023-03-21T07:55:10.003Z,9.35
2023-03-21T07:57:39.827Z,9.28
2023-03-21T08:00:11.279Z,9.28
2023-03-21T08:02:44.698Z,9.29
2023-03-21T08:05:15.092Z,9.29
2023-03-21T08:07:46.812Z,9.31
2023-03-21T08:10:20.349Z,9.35
2023-03-21T08:12:50.245Z,9.39
2023-03-21T08:15:23.372Z,9.51
2023-03-21T08:17:52.518Z,9.63
2023-03-21T08:20:24.406Z,9.65
2023-03-21T08:22:55.218Z,9.67
2023-03-21T08:25:25.159Z,9.76
2023-03-21T08:27:54.570Z,10.01
2023-03-21T08:30:27.639Z,10.49
2023-03-21T08:33:01.560Z,11.30
2023-03-21T08:35:32.278Z,12.64
2023-03-21T08:38:04.514Z,14.12
2023-03-21T08:40:35.687Z,14.45
2023-03-21T08:43:06.754Z,14.63
2023-03-21T08:45:38.264Z,16.87
2023-03-21T08:48:09.188Z,19.13
2023-03-21T08:50:41.779Z,22.21
2023-03-21T08:53:11.496Z,24.45
2023-03-21T08:55:42.569Z,25.38
2023-03-21T08:58:11.777Z,26.44
2023-03-21T09:00:43.653Z,25.02
2023-03-21T09:03:14.734Z,22.73
2023-03-21T09:05:48.245Z,20.86
2023-03-21T09:08:23.844Z,20.19
2023-03-21T09:10:57.285Z,20.40
2023-03-21T09:13:28.902Z,20.55
2023-03-21T09:16:47.569Z,22.81
2023-03-21T09:19:19.392Z,25.04
2023-03-21T09:21:50.350Z,26.00
2023-03-21T09:24:21.475Z,26.64
2023-03-21T09:26:52.359Z,27.33
2023-03-21T09:29:23.787Z,28.17
2023-03-21T09:31:54.369Z,27.07
2023-03-21T09:34:26.807Z,24.96
2023-03-21T09:36:57.513Z,23.30
2023-03-21T09:39:27.999Z,22.04
2023-03-21T09:42:28.818Z,20.90
2023-03-21T09:45:25.289Z,19.57
2023-03-21T09:48:04.331Z,18.39
2023-03-21T09:50:43.013Z,17.44
2023-03-21T09:53:39.474Z,16.63
2023-03-21T09:56:14.226Z,16.16
2023-03-21T09:58:53.676Z,17.13
2023-03-21T10:01:33.261Z,19.46
2023-03-21T10:04:07.814Z,20.67
2023-03-21T10:06:41.594Z,20.42
2023-03-21T10:09:22.010Z,19.62
2023-03-21T10:12:21.458Z,18.82
2023-03-21T10:14:56.470Z,18.10
2023-03-21T10:17:50.854Z,19.94
2023-03-21T10:20:24.137Z,22.88
2023-03-21T10:22:57.242Z,23.80
2023-03-21T10:25:34.709Z,22.38
2023-03-21T10:28:08.904Z,20.91
2023-03-21T10:30:42.773Z,19.81
2023-03-21T10:33:25.180Z,18.93
2023-03-21T10:36:02.035Z,18.04
2023-03-21T10:38:34.269Z,18.20
2023-03-21T10:41:04.343Z,19.42
2023-03-21T10:43:39.451Z,19.92
2023-03-21T10:46:24.406Z,20.50
2023-03-21T10:48:55.090Z,19.96
2023-03-21T10:51:42.254Z,19.51
2023-03-21T10:54:26.455Z,18.91
2023-03-21T10:57:26.671Z,18.26
2023-03-21T11:00:25.097Z,18.87
2023-03-21T11:03:02.139Z,21.09
2023-03-21T11:05:46.179Z,22.44
2023-03-21T11:08:30.924Z,22.27
2023-03-21T11:11:17.073Z,21.48
2023-03-21T11:14:13.467Z,20.43
2023-03-21T11:16:48.741Z,19.47
2023-03-21T11:19:31.200Z,18.67
2023-03-21T11:22:12.958Z,18.00
2023-03-21T11:24:58.439Z,18.36
2023-03-21T11:27:38.489Z,20.25
2023-03-21T11:30:28.076Z,21.81
2023-03-21T11:33:05.197Z,22.40
2023-03-21T11:35:37.678Z,23.12
2023-03-21T11:38:31.275Z,23.68
2023-03-21T11:41:12.102Z,23.63
2023-03-21T11:43:57.733Z,24.12
2023-03-21T11:46:33.511Z,23.88
2023-03-21T11:49:04.837Z,23.50
2023-03-21T11:51:58.947Z,22.96
2023-03-21T11:54:59.546Z,22.56
2023-03-21T11:58:15.092Z,22.66
2023-03-21T12:01:07.815Z,21.46
2023-03-21T12:04:04.316Z,21.52
2023-03-21T12:06:49.766Z,22.52
2023-03-21T12:09:25.989Z,22.55
2023-03-21T12:12:38.349Z,21.63
2023-03-21T12:16:07.816Z,20.64
2023-03-21T12:19:01.706Z,19.14
2023-03-21T12:21:38.384Z,18.12
2023-03-21T12:24:27.310Z,17.62
2023-03-21T12:27:13.232Z,17.70
2023-03-21T12:30:07.793Z,18.63
2023-03-21T12:32:53.716Z,18.68
2023-03-21T12:35:33.680Z,18.17
2023-03-21T12:38:23.094Z,17.85
2023-03-21T12:41:56.920Z,17.48
2023-03-21T12:44:36.383Z,16.79
2023-03-21T12:47:16.019Z,16.63
2023-03-21T12:49:54.129Z,16.68
2023-03-21T12:52:41.736Z,17.15
2023-03-21T12:55:32.797Z,17.18
2023-03-21T12:58:08.228Z,17.62
2023-03-21T13:00:49.070Z,17.70
2023-03-21T13:03:40.456Z,17.39
2023-03-21T13:06:31.822Z,17.33
2023-03-21T13:09:38.518Z,17.89
2023-03-21T13:12:30.463Z,18.47
2023-03-21T13:15:52.187Z,18.84
2023-03-21T13:19:00.291Z,18.91
2023-03-21T13:21:52.466Z,18.97
2023-03-21T13:24:48.714Z,18.91
2023-03-21T13:27:27.803Z,18.54
2023-03-21T13:30:21.940Z,18.35
2023-03-21T13:32:57.798Z,18.07
2023-03-21T13:35:43.456Z,18.08
2023-03-21T13:38:27.097Z,18.15
2023-03-21T13:41:10.240Z,18.34
2023-03-21T13:43:58.016Z,18.51
2023-03-21T13:46:27.792Z,18.29
2023-03-21T13:49:14.403Z,18.27
2023-03-21T13:51:45.717Z,18.38
2023-03-21T13:54:14.797Z,18.60
2023-03-21T13:56:47.132Z,18.73
2023-03-21T13:59:40.282Z,18.80
2023-03-21T14:02:57.763Z,18.87
2023-03-21T14:05:29.174Z,19.04
2023-03-21T14:08:12.574Z,19.19
2023-03-21T14:10:49.717Z,19.23
2023-03-21T14:13:23.665Z,18.79
2023-03-21T14:16:20.600Z,18.13
2023-03-21T14:18:57.996Z,17.54
2023-03-21T14:21:35.152Z,16.62
2023-03-21T14:24:13.415Z,15.54
2023-03-21T14:26:51.506Z,14.91
2023-03-21T14:29:33.306Z,14.69
2023-03-21T14:32:05.547Z,14.99
2023-03-21T14:34:43.391Z,14.82
2023-03-21T14:37:15.722Z,14.59
2023-03-21T14:39:45.225Z,14.32
2023-03-21T14:42:17.182Z,13.93
2023-03-21T14:44:56.646Z,13.56
2023-03-21T14:47:29.107Z,13.15
2023-03-21T14:50:01.715Z,12.87
2023-03-21T14:52:35.263Z,13.11
2023-03-21T14:55:16.028Z,13.47
2023-03-21T14:57:45.492Z,13.77
2023-03-21T15:00:38.538Z,13.94
2023-03-21T15:03:09.051Z,13.96
2023-03-21T15:05:39.799Z,13.83
2023-03-21T15:08:14.766Z,13.62
2023-03-21T15:11:06.846Z,13.40
2023-03-21T15:14:00.814Z,13.15
2023-03-21T15:16:32.981Z,12.84
2023-03-21T15:19:06.475Z,12.65
2023-03-21T15:21:42.828Z,12.55
2023-03-21T15:24:24.199Z,12.57
2023-03-21T15:27:14.128Z,12.69
2023-03-21T15:29:47.998Z,12.74
2023-03-21T15:32:23.313Z,12.91
2023-03-21T15:34:58.687Z,13.09
2023-03-21T15:37:29.432Z,13.24
2023-03-21T15:40:12.449Z,13.22
2023-03-21T15:42:42.682Z,12.97
2023-03-21T15:45:21.882Z,12.78
2023-03-21T15:48:00.302Z,12.54
2023-03-21T15:50:36.969Z,12.24
2023-03-21T15:53:27.374Z,11.90
2023-03-21T15:56:06.303Z,11.57
2023-03-21T15:58:46.368Z,11.32
2023-03-21T16:01:22.519Z,11.11
2023-03-21T16:04:06.677Z,11.04
2023-03-21T16:06:39.979Z,11.03
2023-03-21T16:09:09.558Z,11.06
2023-03-21T16:11:50.553Z,11.02
2023-03-21T16:14:22.981Z,10.87
2023-03-21T16:16:54.066Z,10.62
2023-03-21T16:19:26.448Z,10.41
2023-03-21T16:21:56.021Z,10.22
2023-03-21T16:24:28.005Z,10.06
2023-03-21T16:27:01.126Z,9.98
2023-03-21T16:29:30.145Z,9.90
2023-03-21T16:32:06.495Z,9.81
2023-03-21T16:34:36.987Z,9.70
2023-03-21T16:37:08.499Z,9.56
2023-03-21T16:39:38.093Z,9.37
2023-03-21T16:42:11.153Z,9.26
2023-03-21T16:44:42.089Z,9.17
2023-03-21T16:47:21.163Z,9.03
2023-03-21T16:49:54.696Z,8.87
2023-03-21T16:52:26.394Z,8.72
2023-03-21T16:54:59.062Z,8.59
2023-03-21T16:57:30.732Z,8.41
2023-03-21T17:00:02.848Z,8.27
2023-03-21T17:02:33.003Z,8.19
2023-03-21T17:05:05.107Z,8.10
2023-03-21T17:07:42.281Z,8.00
2023-03-21T17:10:19.681Z,7.88
2023-03-21T17:12:52.508Z,7.78
2023-03-21T17:15:48.977Z,7.69
2023-03-21T17:18:21.611Z,7.61
2023-03-21T17:20:53.242Z,7.51
2023-03-21T17:23:25.205Z,7.39
2023-03-21T17:25:59.075Z,7.33
2023-03-21T17:28:34.426Z,7.28
2023-03-21T17:31:17.477Z,7.21
2023-03-21T17:33:51.010Z,7.15
2023-03-21T17:36:42.902Z,7.13
2023-03-21T17:39:22.754Z,7.09
2023-03-21T17:41:54.320Z,7.05
2023-03-21T17:44:27.048Z,7.01
2023-03-21T17:46:59.672Z,6.92
2023-03-21T17:49:32.374Z,6.83
2023-03-21T17:52:03.957Z,6.77
2023-03-21T17:54:33.859Z,6.70
2023-03-21T17:57:04.140Z,6.62
2023-03-21T17:59:36.600Z,6.52
2023-03-21T18:02:08.152Z,6.41
2023-03-21T18:04:42.684Z,6.30
2023-03-21T18:07:32.484Z,6.23
2023-03-21T18:10:24.906Z,6.18
2023-03-21T18:12:57.566Z,6.12
2023-03-21T18:15:59.931Z,6.07
2023-03-21T18:18:34.054Z,5.96
2023-03-21T18:21:07.089Z,5.81
2023-03-21T18:23:48.245Z,5.73
2023-03-21T18:26:31.283Z,5.66
2023-03-21T18:32:06.236Z,5.50
2023-03-21T18:34:40.553Z,5.45
2023-03-21T18:37:14.654Z,5.39
2023-03-21T18:39:47.247Z,5.34
2023-03-21T18:42:22.523Z,5.30
2023-03-21T18:44:55.706Z,5.26
2023-03-21T18:47:27.753Z,5.23
2023-03-21T18:50:13.749Z,5.20
2023-03-21T18:52:49.354Z,5.15
2023-03-21T18:55:44.247Z,5.10
2023-03-21T18:58:18.394Z,4.99
2023-03-21T19:00:54.392Z,4.87
2023-03-21T19:03:36.646Z,4.74
2023-03-21T19:06:10.700Z,4.65
2023-03-21T19:08:49.779Z,4.56
2023-03-21T19:11:22.891Z,4.51
2023-03-21T19:14:01.819Z,4.52
2023-03-21T19:16:56.450Z,4.53
2023-03-21T19:19:27.076Z,4.55
2023-03-21T19:22:02.552Z,4.52
2023-03-21T19:24:35.268Z,4.42
2023-03-21T19:27:07.710Z,4.29
2023-03-21T19:29:59.776Z,4.14
2023-03-21T19:32:40.568Z,4.04
2023-03-21T19:35:15.630Z,4.01
2023-03-21T19:37:49.899Z,3.97
2023-03-21T19:40:29.550Z,3.84
2023-03-21T19:43:29.914Z,3.71
2023-03-21T19:46:01.055Z,3.60
2023-03-21T19:48:35.916Z,3.51
2023-03-21T19:51:26.897Z,3.46
2023-03-21T19:54:01.501Z,3.46
2023-03-21T19:56:34.842Z,3.48
2023-03-21T19:59:08.556Z,3.52
2023-03-21T20:01:41.635Z,3.58
2023-03-21T20:04:16.081Z,3.62
2023-03-21T20:06:48.250Z,3.65
2023-03-21T20:12:13.938Z,3.63
2023-03-21T20:15:07.164Z,3.52
2023-03-21T20:17:46.379Z,3.38
2023-03-21T20:20:21.760Z,3.33
2023-03-21T20:23:15.871Z,3.31
2023-03-21T20:25:50.517Z,3.23
2023-03-21T20:28:27.148Z,3.12
2023-03-21T20:31:03.774Z,3.08
2023-03-21T20:33:38.262Z,3.05
2023-03-21T20:36:42.758Z,2.98
2023-03-21T20:39:08.216Z,2.87
2023-03-21T20:41:39.690Z,2.82
2023-03-21T20:47:20.619Z,2.82
2023-03-21T20:49:51.780Z,2.85
2023-03-21T20:53:00.836Z,2.89
2023-03-21T20:55:23.109Z,2.95
2023-03-21T20:58:01.919Z,2.90
2023-03-21T21:00:36.682Z,2.79
2023-03-21T21:03:09.048Z,2.66
2023-03-21T21:05:45.842Z,2.56
2023-03-21T21:08:21.384Z,2.49
2023-03-21T21:11:27.699Z,2.47
2023-03-21T21:13:45.853Z,2.49
2023-03-21T21:16:18.152Z,2.51
2023-03-21T21:18:49.644Z,2.51
2023-03-21T21:21:21.882Z,2.51
2023-03-21T21:23:55.439Z,2.48
2023-03-21T21:26:25.649Z,2.46
2023-03-21T21:28:54.556Z,2.46
2023-03-21T21:31:25.090Z,2.48
2023-03-21T21:33:55.872Z,2.51
2023-03-21T21:36:25.011Z,2.54
2023-03-21T21:38:56.533Z,2.59
2023-03-21T21:41:26.283Z,2.64
2023-03-21T21:43:57.447Z,2.68
2023-03-21T21:46:27.600Z,2.70
2023-03-21T21:48:59.968Z,2.70
2023-03-21T21:51:29.200Z,2.65
2023-03-21T21:54:04.774Z,2.61
2023-03-21T21:56:38.024Z,2.54
2023-03-21T21:59:10.458Z,2.55
2023-03-21T22:01:39.551Z,2.58
2023-03-21T22:04:11.890Z,2.59
2023-03-21T22:06:42.692Z,2.58
2023-03-21T22:09:14.331Z,2.58
2023-03-21T22:11:44.273Z,2.62
2023-03-21T22:14:14.939Z,2.67
2023-03-21T22:16:44.548Z,2.67
2023-03-21T22:19:14.420Z,2.64
2023-03-21T22:21:44.119Z,2.62
2023-03-21T22:24:13.865Z,2.63
2023-03-21T22:26:44.151Z,2.67
2023-03-21T22:29:13.443Z,2.70
2023-03-21T22:31:46.232Z,2.76
2023-03-21T22:34:16.747Z,2.79
2023-03-21T22:36:47.961Z,2.81
2023-03-21T22:39:20.514Z,2.82
2023-03-21T22:41:52.791Z,2.82
2023-03-21T22:44:23.682Z,2.78
2023-03-21T22:46:55.762Z,2.74
2023-03-21T22:49:27.231Z,2.72
2023-03-21T22:51:57.718Z,2.71
2023-03-21T22:54:28.324Z,2.72
2023-03-21T22:56:58.800Z,2.73
2023-03-21T22:59:29.893Z,2.73
2023-03-21T23:01:59.773Z,2.75
2023-03-21T23:04:30.116Z,2.78
2023-03-21T23:07:00.556Z,2.81
2023-03-21T23:09:35.037Z,2.88
2023-03-21T23:12:06.703Z,2.97
2023-03-21T23:14:36.490Z,3.03
2023-03-21T23:17:07.508Z,3.09
2023-03-21T23:19:37.016Z,3.14
2023-03-21T23:22:09.419Z,3.16
2023-03-21T23:24:38.702Z,3.17
2023-03-21T23:27:08.002Z,3.17
2023-03-21T23:29:40.626Z,3.15
2023-03-21T23:32:11.445Z,3.14
2023-03-21T23:34:41.620Z,3.14
2023-03-21T23:37:12.649Z,3.15
2023-03-21T23:39:42.882Z,3.17
2023-03-21T23:42:11.829Z,3.20
2023-03-21T23:44:44.826Z,3.22
2023-03-21T23:47:18.668Z,3.24
2023-03-21T23:49:50.477Z,3.24
2023-03-21T23:52:19.887Z,3.25
2023-03-21T23:54:49.984Z,3.25
2023-03-21T23:57:19.881Z,3.26
2023-03-21T23:59:50.250Z,3.26
